createdAt,value
2023-05-06T00:00:18.749Z,9.07
2023-05-06T00:02:46.385Z,8.90
2023-05-06T00:05:14.749Z,10.93
2023-05-06T00:07:41.936Z,7.47
2023-05-06T00:10:09.282Z,8.00
2023-05-06T00:12:36.652Z,5.15
2023-05-06T00:15:04.594Z,7.97
2023-05-06T00:17:31.658Z,6.85
2023-05-06T00:19:59.014Z,12.38
2023-05-06T00:22:26.065Z,7.55
2023-05-06T00:24:52.990Z,9.60
2023-05-06T00:27:20.035Z,11.82
2023-05-06T00:29:47.398Z,9.77
2023-05-06T00:32:14.536Z,7.95
2023-05-06T00:34:41.645Z,9.07
2023-05-06T00:37:08.634Z,9.95
2023-05-06T00:39:35.645Z,8.05
2023-05-06T00:42:03.061Z,10.27
2023-05-06T00:44:31.894Z,13.13
2023-05-06T00:47:00.962Z,12.63
2023-05-06T00:49:29.378Z,12.73
2023-05-06T00:51:57.600Z,7.22
2023-05-06T00:54:29.922Z,7.38
2023-05-06T00:56:57.154Z,5.25
2023-05-06T00:59:24.321Z,15.68
2023-05-06T01:01:52.343Z,12.10
2023-05-06T01:04:19.996Z,10.93
2023-05-06T01:07:02.793Z,11.30
2023-05-06T01:09:41.043Z,7.47
2023-05-06T01:12:30.743Z,11.90
2023-05-06T01:15:14.123Z,12.52
2023-05-06T01:17:45.636Z,12.65
2023-05-06T01:20:13.325Z,12.32
2023-05-06T01:22:40.292Z,9.90
2023-05-06T01:25:07.664Z,6.68
2023-05-06T01:27:35.044Z,10.20
2023-05-06T01:30:02.816Z,13.70
2023-05-06T01:32:50.403Z,13.95
2023-05-06T01:35:35.976Z,12.13
2023-05-06T01:38:20.594Z,14.95
2023-05-06T01:40:54.686Z,16.20
2023-05-06T01:43:23.575Z,12.85
2023-05-06T01:45:53.663Z,8.65
2023-05-06T01:48:28.584Z,13.13
2023-05-06T01:50:56.740Z,8.23
2023-05-06T01:53:23.785Z,13.23
2023-05-06T01:55:50.792Z,15.50
2023-05-06T01:58:17.896Z,15.80
2023-05-06T02:00:44.781Z,13.23
2023-05-06T02:03:12.439Z,14.43
2023-05-06T02:05:39.669Z,10.98
2023-05-06T02:08:06.614Z,16.00
2023-05-06T02:10:33.676Z,9.55
2023-05-06T02:13:01.373Z,9.77
2023-05-06T02:15:28.306Z,7.93
2023-05-06T02:17:55.489Z,9.95
2023-05-06T02:20:22.660Z,11.43
2023-05-06T02:22:49.545Z,11.85
2023-05-06T02:25:16.803Z,9.50
2023-05-06T02:27:45.517Z,10.50
2023-05-06T02:30:12.718Z,12.10
2023-05-06T02:32:39.929Z,10.18
2023-05-06T02:35:08.083Z,10.32
2023-05-06T02:37:35.348Z,10.95
2023-05-06T02:40:02.792Z,10.43
2023-05-06T02:42:29.711Z,10.35
2023-05-06T02:44:56.898Z,9.52
2023-05-06T02:47:23.843Z,10.80
2023-05-06T02:49:50.803Z,10.75
2023-05-06T02:52:17.973Z,9.40
2023-05-06T02:54:44.940Z,9.88
2023-05-06T02:57:11.884Z,10.77
2023-05-06T02:59:38.951Z,9.88
2023-05-06T03:02:06.001Z,9.05
2023-05-06T03:04:33.141Z,9.25
2023-05-06T03:07:00.288Z,9.93
2023-05-06T03:09:27.295Z,10.15
2023-05-06T03:11:54.276Z,10.75
2023-05-06T03:14:21.406Z,10.10
2023-05-06T03:16:48.547Z,11.35
2023-05-06T03:19:15.590Z,10.60
2023-05-06T03:21:42.645Z,10.02
2023-05-06T03:24:09.838Z,10.07
2023-05-06T03:26:37.204Z,8.95
2023-05-06T03:29:05.172Z,10.30
2023-05-06T03:31:32.486Z,11.98
2023-05-06T03:33:59.500Z,11.98
2023-05-06T03:36:28.220Z,11.30
2023-05-06T03:38:55.437Z,10.95
2023-05-06T03:41:22.695Z,10.95
2023-05-06T03:43:49.631Z,12.27
2023-05-06T03:46:16.637Z,12.63
2023-05-06T03:48:43.684Z,11.05
2023-05-06T03:51:10.761Z,10.43
2023-05-06T03:53:38.213Z,11.95
2023-05-06T03:56:05.498Z,12.20
2023-05-06T03:58:32.691Z,13.82
2023-05-06T04:01:01.177Z,11.18
2023-05-06T04:03:28.506Z,11.10
2023-05-06T04:05:55.560Z,14.95
2023-05-06T04:08:22.759Z,12.93
2023-05-06T04:10:49.765Z,12.85
2023-05-06T04:13:18.458Z,12.50
2023-05-06T04:15:45.764Z,12.65
2023-05-06T04:18:19.164Z,10.77
2023-05-06T04:20:48.292Z,12.80
2023-05-06T04:23:15.479Z,12.43
2023-05-06T04:25:48.662Z,17.40
2023-05-06T04:28:16.966Z,11.05
2023-05-06T04:30:44.861Z,9.57
2023-05-06T04:33:12.353Z,10.70
2023-05-06T04:35:40.215Z,9.00
2023-05-06T04:38:07.481Z,10.27
2023-05-06T04:40:36.751Z,10.38
2023-05-06T04:43:04.789Z,10.68
2023-05-06T04:45:32.646Z,9.52
2023-05-06T04:47:59.847Z,10.80
2023-05-06T04:50:26.756Z,13.45
2023-05-06T04:52:54.040Z,12.43
2023-05-06T04:55:21.298Z,12.57
2023-05-06T04:57:48.223Z,12.70
2023-05-06T05:00:16.476Z,13.48
2023-05-06T05:02:43.770Z,13.27
2023-05-06T05:05:11.673Z,12.32
2023-05-06T05:07:39.255Z,12.98
2023-05-06T05:10:07.058Z,12.32
2023-05-06T05:12:33.984Z,13.07
2023-05-06T05:15:01.081Z,10.77
2023-05-06T05:17:28.454Z,13.82
2023-05-06T05:19:55.361Z,13.65
2023-05-06T05:22:22.372Z,19.00
2023-05-06T05:24:49.378Z,13.68
2023-05-06T05:27:16.435Z,17.20
2023-05-06T05:29:43.453Z,18.73
2023-05-06T05:32:10.681Z,15.48
2023-05-06T05:34:38.377Z,19.02
2023-05-06T05:37:05.405Z,23.00
2023-05-06T05:39:32.810Z,15.60
2023-05-06T05:41:59.781Z,14.75
2023-05-06T05:44:26.719Z,15.80
2023-05-06T05:46:53.816Z,24.70
2023-05-06T05:49:21.092Z,19.77
2023-05-06T05:51:47.990Z,15.80
2023-05-06T05:54:14.942Z,23.80
2023-05-06T05:56:42.300Z,19.02
2023-05-06T05:59:09.398Z,13.65
2023-05-06T06:01:36.599Z,19.52
2023-05-06T06:04:04.054Z,22.30
2023-05-06T06:06:31.608Z,33.40
2023-05-06T06:08:59.114Z,22.75
2023-05-06T06:11:27.090Z,15.10
2023-05-06T06:13:54.432Z,21.23
2023-05-06T06:16:21.628Z,22.35
2023-05-06T06:18:48.699Z,18.30
2023-05-06T06:21:15.614Z,15.60
2023-05-06T06:23:42.792Z,17.98
2023-05-06T06:26:12.090Z,23.75
2023-05-06T06:28:39.974Z,16.65
2023-05-06T06:31:06.989Z,18.17
2023-05-06T06:33:34.210Z,19.20
2023-05-06T06:36:01.210Z,20.05
2023-05-06T06:38:28.628Z,20.55
2023-05-06T06:40:55.619Z,16.50
2023-05-06T06:43:23.905Z,17.05
2023-05-06T06:45:51.626Z,22.70
2023-05-06T06:48:19.655Z,20.48
2023-05-06T06:50:46.812Z,29.35
2023-05-06T06:53:13.825Z,19.75
2023-05-06T06:55:44.422Z,17.75
2023-05-06T06:58:11.714Z,24.75
2023-05-06T07:00:38.902Z,19.73
2023-05-06T07:03:05.910Z,19.38
2023-05-06T07:05:32.978Z,19.48
2023-05-06T07:07:59.933Z,19.40
2023-05-06T07:10:27.266Z,19.85
2023-05-06T07:12:54.470Z,19.25
2023-05-06T07:15:21.895Z,22.02
2023-05-06T07:17:48.870Z,25.63
2023-05-06T07:20:16.419Z,21.67
2023-05-06T07:22:44.581Z,20.33
2023-05-06T07:25:11.937Z,22.60
2023-05-06T07:27:39.033Z,19.23
2023-05-06T07:30:06.970Z,21.30
2023-05-06T07:32:34.153Z,26.45
2023-05-06T07:35:01.674Z,26.15
2023-05-06T07:37:28.749Z,29.35
2023-05-06T07:39:58.010Z,20.40
2023-05-06T07:42:24.987Z,20.25
2023-05-06T07:44:52.028Z,19.73
2023-05-06T07:47:31.537Z,15.90
2023-05-06T07:49:59.540Z,17.83
2023-05-06T07:52:27.177Z,14.95
2023-05-06T07:54:54.338Z,12.15
2023-05-06T07:57:21.317Z,13.57
2023-05-06T07:59:49.963Z,11.20
2023-05-06T08:02:17.499Z,9.45
2023-05-06T08:04:45.208Z,15.18
2023-05-06T08:07:12.476Z,17.88
2023-05-06T08:09:39.381Z,13.07
2023-05-06T08:12:06.530Z,18.02
2023-05-06T08:14:33.777Z,17.05
2023-05-06T08:17:00.838Z,17.35
2023-05-06T08:19:28.061Z,12.98
2023-05-06T08:21:55.287Z,15.10
2023-05-06T08:24:22.234Z,14.07
2023-05-06T08:26:49.391Z,11.73
2023-05-06T08:29:16.560Z,12.93
2023-05-06T08:31:43.816Z,10.98
2023-05-06T08:34:10.873Z,11.80
2023-05-06T08:36:37.978Z,10.05
2023-05-06T08:39:06.079Z,12.00
2023-05-06T08:41:35.956Z,11.10
2023-05-06T08:44:05.705Z,10.93
2023-05-06T08:46:32.973Z,12.75
2023-05-06T08:49:00.834Z,11.90
2023-05-06T08:51:32.779Z,14.07
2023-05-06T08:54:04.995Z,14.35
2023-05-06T08:56:33.805Z,21.98
2023-05-06T08:59:01.641Z,13.23
2023-05-06T09:01:29.267Z,14.57
2023-05-06T09:03:58.327Z,12.48
2023-05-06T09:06:25.748Z,17.17
2023-05-06T09:08:53.171Z,10.90
2023-05-06T09:11:22.436Z,14.38
2023-05-06T09:13:51.225Z,12.93
2023-05-06T09:16:29.486Z,12.55
2023-05-06T09:18:57.697Z,12.90
2023-05-06T09:21:45.549Z,12.27
2023-05-06T09:24:14.278Z,15.70
2023-05-06T09:26:43.527Z,12.13
2023-05-06T09:29:11.058Z,18.13
2023-05-06T09:31:43.794Z,18.45
2023-05-06T09:34:11.972Z,16.27
2023-05-06T09:36:39.375Z,15.70
2023-05-06T09:39:07.179Z,16.92
2023-05-06T09:41:34.187Z,14.82
2023-05-06T09:44:01.718Z,17.17
2023-05-06T09:46:29.185Z,15.55
2023-05-06T09:48:58.527Z,15.18
2023-05-06T09:51:27.963Z,19.17
2023-05-06T09:53:57.333Z,13.85
2023-05-06T09:56:25.097Z,12.70
2023-05-06T09:58:54.961Z,13.05
2023-05-06T10:01:35.253Z,17.45
2023-05-06T10:04:06.713Z,25.23
2023-05-06T10:06:37.151Z,23.55
2023-05-06T10:09:06.319Z,17.77
2023-05-06T10:11:33.850Z,21.80
2023-05-06T10:14:01.729Z,22.85
2023-05-06T10:16:29.368Z,14.10
2023-05-06T10:18:58.665Z,14.90
2023-05-06T10:21:28.269Z,13.80
2023-05-06T10:24:07.731Z,17.10
2023-05-06T10:26:38.172Z,16.25
2023-05-06T10:29:10.703Z,13.75
2023-05-06T10:31:44.513Z,14.48
2023-05-06T10:34:11.635Z,15.27
2023-05-06T10:36:40.464Z,14.80
2023-05-06T10:39:10.489Z,12.77
2023-05-06T10:41:38.503Z,14.27
2023-05-06T10:44:06.365Z,14.10
2023-05-06T10:47:00.052Z,14.32
2023-05-06T10:49:27.400Z,13.85
2023-05-06T10:52:12.531Z,14.55
2023-05-06T10:54:57.313Z,14.77
2023-05-06T10:57:27.412Z,14.18
2023-05-06T10:59:55.763Z,13.68
2023-05-06T11:02:24.109Z,13.18
2023-05-06T11:04:59.632Z,14.02
2023-05-06T11:07:27.045Z,12.90
2023-05-06T11:10:08.387Z,12.68
2023-05-06T11:12:50.227Z,13.75
2023-05-06T11:15:29.738Z,13.15
2023-05-06T11:17:57.655Z,12.02
2023-05-06T11:20:26.476Z,13.57
2023-05-06T11:22:54.291Z,14.35
2023-05-06T11:25:41.693Z,14.65
2023-05-06T11:28:12.945Z,13.20
2023-05-06T11:30:42.541Z,13.15
2023-05-06T11:33:19.213Z,13.40
2023-05-06T11:35:46.334Z,13.55
2023-05-06T11:38:13.577Z,13.93
2023-05-06T11:40:42.957Z,12.93
2023-05-06T11:43:16.661Z,13.32
2023-05-06T11:45:48.638Z,12.32
2023-05-06T11:48:16.527Z,13.35
2023-05-06T11:50:48.022Z,13.25
2023-05-06T11:53:21.650Z,13.20
2023-05-06T11:55:50.200Z,14.20
2023-05-06T11:58:25.382Z,13.60
2023-05-06T12:01:03.574Z,14.32
2023-05-06T12:03:32.133Z,15.30
2023-05-06T12:06:00.091Z,12.90
2023-05-06T12:08:34.240Z,13.02
2023-05-06T12:11:04.995Z,14.70
2023-05-06T12:13:32.573Z,13.63
2023-05-06T12:16:01.712Z,15.30
2023-05-06T12:18:29.307Z,15.27
2023-05-06T12:20:57.313Z,12.25
2023-05-06T12:23:24.380Z,12.63
2023-05-06T12:26:09.372Z,12.90
2023-05-06T12:28:37.364Z,14.07
2023-05-06T12:31:20.994Z,12.25
2023-05-06T12:33:49.890Z,12.82
2023-05-06T12:36:18.153Z,12.68
2023-05-06T12:38:53.608Z,13.05
2023-05-06T12:41:21.855Z,15.32
2023-05-06T12:43:48.848Z,13.93
2023-05-06T12:46:17.230Z,13.27
2023-05-06T12:48:58.070Z,13.63
2023-05-06T12:51:25.164Z,13.93
2023-05-06T12:53:53.053Z,14.48
2023-05-06T12:56:21.943Z,12.95
2023-05-06T12:59:04.385Z,12.73
2023-05-06T13:01:31.933Z,14.07
2023-05-06T13:03:59.008Z,13.05
2023-05-06T13:06:26.026Z,13.60
2023-05-06T13:08:53.053Z,13.13
2023-05-06T13:11:22.187Z,13.20
2023-05-06T13:13:49.372Z,15.15
2023-05-06T13:16:16.541Z,15.73
2023-05-06T13:18:43.562Z,14.18
2023-05-06T13:21:10.469Z,14.75
2023-05-06T13:23:38.417Z,13.18
2023-05-06T13:26:06.133Z,16.08
2023-05-06T13:28:35.571Z,15.55
2023-05-06T13:31:02.629Z,13.80
2023-05-06T13:33:30.069Z,13.60
2023-05-06T13:35:57.332Z,13.25
2023-05-06T13:38:24.360Z,13.18
2023-05-06T13:40:52.674Z,13.27
2023-05-06T13:43:21.242Z,13.45
2023-05-06T13:45:48.209Z,13.35
2023-05-06T13:48:15.522Z,12.93
2023-05-06T13:50:43.598Z,12.98
2023-05-06T13:53:11.977Z,12.23
2023-05-06T13:55:39.392Z,11.32
2023-05-06T13:58:07.238Z,12.98
2023-05-06T14:00:36.065Z,13.73
2023-05-06T14:03:03.349Z,12.95
2023-05-06T14:05:30.712Z,13.10
2023-05-06T14:07:57.819Z,13.32
2023-05-06T14:10:24.799Z,13.35
2023-05-06T14:12:51.792Z,13.63
2023-05-06T14:15:18.846Z,11.25
2023-05-06T14:17:45.914Z,11.70
2023-05-06T14:20:12.873Z,12.00
2023-05-06T14:22:43.670Z,13.10
2023-05-06T14:25:11.149Z,11.75
2023-05-06T14:27:38.593Z,12.23
2023-05-06T14:30:08.870Z,11.30
2023-05-06T14:32:36.908Z,12.65
2023-05-06T14:35:04.232Z,11.27
2023-05-06T14:37:31.220Z,11.90
2023-05-06T14:39:58.189Z,10.68
2023-05-06T14:42:25.191Z,11.43
2023-05-06T14:44:52.067Z,12.88
2023-05-06T14:47:19.291Z,11.13
2023-05-06T14:49:46.210Z,11.35
2023-05-06T14:52:13.433Z,11.32
2023-05-06T14:54:43.320Z,11.45
2023-05-06T14:57:11.464Z,11.15
2023-05-06T14:59:39.028Z,11.30
2023-05-06T15:02:08.801Z,10.68
2023-05-06T15:04:36.642Z,11.15
2023-05-06T15:07:04.137Z,10.85
2023-05-06T15:09:31.252Z,11.00
2023-05-06T15:11:58.524Z,11.77
2023-05-06T15:14:25.525Z,11.55
2023-05-06T15:16:57.106Z,12.50
2023-05-06T15:19:24.738Z,12.20
2023-05-06T15:21:51.790Z,12.63
2023-05-06T15:24:18.909Z,11.65
2023-05-06T15:26:45.994Z,10.55
2023-05-06T15:29:13.355Z,12.02
2023-05-06T15:31:41.354Z,10.32
2023-05-06T15:34:10.893Z,10.98
2023-05-06T15:36:38.945Z,10.00
2023-05-06T15:39:05.999Z,9.35
2023-05-06T15:41:34.692Z,9.57
2023-05-06T15:44:03.493Z,10.88
2023-05-06T15:46:34.820Z,10.32
2023-05-06T15:49:26.185Z,9.82
2023-05-06T15:51:51.186Z,10.30
2023-05-06T15:54:18.859Z,10.63
2023-05-06T15:56:46.960Z,9.65
2023-05-06T15:59:14.381Z,9.63
2023-05-06T16:02:24.857Z,10.07
2023-05-06T16:06:57.683Z,10.05
2023-05-06T16:09:24.945Z,10.68
2023-05-06T16:11:52.425Z,9.45
2023-05-06T16:14:19.347Z,9.43
2023-05-06T16:16:46.570Z,8.95
2023-05-06T16:19:13.849Z,10.13
2023-05-06T16:21:41.305Z,9.07
2023-05-06T16:24:08.699Z,9.93
2023-05-06T16:26:35.620Z,9.55
2023-05-06T16:29:02.679Z,9.30
2023-05-06T16:31:29.892Z,10.07
2023-05-06T16:33:57.095Z,11.05
2023-05-06T16:36:24.119Z,10.48
2023-05-06T16:38:51.272Z,8.13
2023-05-06T16:41:18.193Z,9.65
2023-05-06T16:43:45.190Z,9.05
2023-05-06T16:46:12.263Z,11.10
2023-05-06T16:48:39.404Z,9.63
2023-05-06T16:51:06.985Z,8.23
2023-05-06T16:53:34.166Z,10.75
2023-05-06T16:56:03.608Z,9.55
2023-05-06T16:58:30.747Z,9.63
2023-05-06T17:00:58.006Z,8.80
2023-05-06T17:03:25.743Z,10.25
2023-05-06T17:05:54.528Z,8.80
2023-05-06T17:08:22.077Z,10.07
2023-05-06T17:10:51.405Z,10.40
2023-05-06T17:13:18.622Z,12.27
2023-05-06T17:15:46.889Z,10.18
2023-05-06T17:18:14.051Z,9.57
2023-05-06T17:20:54.420Z,8.20
2023-05-06T17:23:23.333Z,10.25
2023-05-06T17:25:51.513Z,9.10
2023-05-06T17:28:19.202Z,9.75
2023-05-06T17:30:46.602Z,11.52
2023-05-06T17:33:13.711Z,12.27
2023-05-06T17:35:40.823Z,13.35
2023-05-06T17:38:08.204Z,11.63
2023-05-06T17:40:35.959Z,9.52
2023-05-06T17:43:03.135Z,16.13
2023-05-06T17:45:30.246Z,9.80
2023-05-06T17:47:57.352Z,12.68
2023-05-06T17:50:24.503Z,9.23
2023-05-06T17:52:52.973Z,9.50
2023-05-06T17:55:21.823Z,10.50
2023-05-06T17:57:49.495Z,13.75
2023-05-06T18:00:17.195Z,13.35
2023-05-06T18:02:44.869Z,18.60
2023-05-06T18:05:13.685Z,14.43
2023-05-06T18:07:41.104Z,19.80
2023-05-06T18:10:09.237Z,18.45
2023-05-06T18:12:36.321Z,13.32
2023-05-06T18:15:03.311Z,13.02
2023-05-06T18:17:30.321Z,16.58
2023-05-06T18:19:57.338Z,15.80
2023-05-06T18:22:24.350Z,15.88
2023-05-06T18:24:55.381Z,18.65
2023-05-06T18:27:23.150Z,13.55
2023-05-06T18:29:50.436Z,19.35
2023-05-06T18:32:18.046Z,16.52
2023-05-06T18:34:45.093Z,21.95
2023-05-06T18:37:12.325Z,13.07
2023-05-06T18:39:42.903Z,12.77
2023-05-06T18:42:10.060Z,11.40
2023-05-06T18:44:37.445Z,13.98
2023-05-06T18:47:04.586Z,15.43
2023-05-06T18:49:31.578Z,18.35
2023-05-06T18:51:58.743Z,20.50
2023-05-06T18:54:25.845Z,14.40
2023-05-06T18:56:52.805Z,16.00
2023-05-06T18:59:19.940Z,12.43
2023-05-06T19:01:47.457Z,14.77
2023-05-06T19:04:14.866Z,13.30
2023-05-06T19:06:42.432Z,13.75
2023-05-06T19:09:09.601Z,17.60
2023-05-06T19:11:36.805Z,20.40
2023-05-06T19:14:03.949Z,17.70
2023-05-06T19:16:31.001Z,20.77
2023-05-06T19:18:57.972Z,24.00
2023-05-06T19:21:24.899Z,24.40
2023-05-06T19:23:53.209Z,17.25
2023-05-06T19:26:20.185Z,13.00
2023-05-06T19:28:47.071Z,23.73
2023-05-06T19:31:14.515Z,20.23
2023-05-06T19:33:43.257Z,19.08
2023-05-06T19:36:10.674Z,19.85
2023-05-06T19:38:38.455Z,23.55
2023-05-06T19:41:06.238Z,22.90
2023-05-06T19:43:33.293Z,19.25
2023-05-06T19:46:00.379Z,17.38
2023-05-06T19:48:27.497Z,28.10
2023-05-06T19:50:54.648Z,24.40
2023-05-06T19:53:24.000Z,21.80
2023-05-06T19:55:51.594Z,22.38
2023-05-06T19:58:19.615Z,25.92
2023-05-06T20:00:46.558Z,24.48
2023-05-06T20:03:13.786Z,25.60
2023-05-06T20:05:42.219Z,22.33
2023-05-06T20:08:11.350Z,17.67
2023-05-06T20:10:38.849Z,30.67
2023-05-06T20:13:06.989Z,24.58
2023-05-06T20:15:35.517Z,29.05
2023-05-06T20:18:02.900Z,22.88
2023-05-06T20:20:36.406Z,30.23
2023-05-06T20:23:03.760Z,17.38
2023-05-06T20:25:31.294Z,15.02
2023-05-06T20:28:00.032Z,22.08
2023-05-06T20:30:27.170Z,19.35
2023-05-06T20:32:55.646Z,15.30
2023-05-06T20:35:22.721Z,12.45
2023-05-06T20:37:49.630Z,18.02
2023-05-06T20:40:16.797Z,33.25
2023-05-06T20:42:43.749Z,25.75
2023-05-06T20:45:11.057Z,22.30
2023-05-06T20:47:38.252Z,30.88
2023-05-06T20:50:05.878Z,22.15
2023-05-06T20:52:34.179Z,24.58
2023-05-06T20:55:01.749Z,27.70
2023-05-06T20:57:28.721Z,21.33
2023-05-06T20:59:56.222Z,23.40
2023-05-06T21:02:23.317Z,26.15
2023-05-06T21:04:51.025Z,24.38
2023-05-06T21:07:18.101Z,14.20
2023-05-06T21:09:45.517Z,27.10
2023-05-06T21:12:12.827Z,15.05
2023-05-06T21:14:39.795Z,38.53
2023-05-06T21:17:06.861Z,20.50
2023-05-06T21:19:33.818Z,17.60
2023-05-06T21:22:01.068Z,24.02
2023-05-06T21:24:28.223Z,34.35
2023-05-06T21:26:55.202Z,29.95
2023-05-06T21:29:22.351Z,21.42
2023-05-06T21:31:49.252Z,24.48
2023-05-06T21:34:16.534Z,17.50
2023-05-06T21:36:43.464Z,16.90
2023-05-06T21:39:12.631Z,29.48
2023-05-06T21:41:40.777Z,23.80
2023-05-06T21:44:09.204Z,10.48
2023-05-06T21:46:37.803Z,33.55
2023-05-06T21:49:05.231Z,16.10
2023-05-06T21:51:34.900Z,13.65
2023-05-06T21:54:02.248Z,15.10
2023-05-06T21:56:29.637Z,21.20
2023-05-06T21:58:56.701Z,20.05
2023-05-06T22:01:27.833Z,22.88
2023-05-06T22:03:55.296Z,12.52
2023-05-06T22:06:22.865Z,22.88
2023-05-06T22:08:49.845Z,20.98
2023-05-06T22:11:17.017Z,20.38
2023-05-06T22:13:44.144Z,15.88
2023-05-06T22:16:11.122Z,29.40
2023-05-06T22:18:41.459Z,18.20
2023-05-06T22:21:09.686Z,18.70
2023-05-06T22:23:36.999Z,9.10
2023-05-06T22:26:04.289Z,12.73
2023-05-06T22:28:31.518Z,12.52
2023-05-06T22:30:58.617Z,18.73
2023-05-06T22:33:26.913Z,19.48
2023-05-06T22:35:55.440Z,10.20
2023-05-06T22:38:22.631Z,25.23
2023-05-06T22:40:49.699Z,16.83
2023-05-06T22:43:16.632Z,24.63
2023-05-06T22:45:43.817Z,11.38
2023-05-06T22:48:11.284Z,26.90
2023-05-06T22:50:38.373Z,9.00
2023-05-06T22:53:14.452Z,15.13
2023-05-06T22:55:42.219Z,14.63
2023-05-06T22:58:09.203Z,19.63
2023-05-06T23:00:36.604Z,13.48
2023-05-06T23:03:03.820Z,12.27
2023-05-06T23:05:30.786Z,11.93
2023-05-06T23:07:57.681Z,18.67
2023-05-06T23:10:24.707Z,15.05
2023-05-06T23:12:51.938Z,7.05
2023-05-06T23:15:19.015Z,19.88
2023-05-06T23:17:46.271Z,13.75
2023-05-06T23:20:13.487Z,26.17
2023-05-06T23:22:40.581Z,12.20
2023-05-06T23:25:09.362Z,9.75
2023-05-06T23:27:40.399Z,24.45
2023-05-06T23:30:08.793Z,9.20
2023-05-06T23:32:35.993Z,12.82
2023-05-06T23:35:03.183Z,7.93
2023-05-06T23:37:30.561Z,7.03
2023-05-06T23:39:58.731Z,10.85
2023-05-06T23:42:26.299Z,11.43
2023-05-06T23:44:53.622Z,13.82
2023-05-06T23:47:20.732Z,15.50
2023-05-06T23:49:47.856Z,19.15
2023-05-06T23:52:14.973Z,27.10
2023-05-06T23:54:42.135Z,12.95
2023-05-06T23:57:09.057Z,17.75
2023-05-06T23:59:36.181Z,19.77
